»·PEaware :: SKW5723 KPSP-KSFO

SKW5723 :: KPSP-KSFO

FLIGHT INFORMATION

Flight Status: Arrived
Operator:
SkyWest Airlines
More flights by this operator :: More flights under this callsign
Pilot: Isaac R. (8401)
Aircraft: CANADAIR CL-600 CRJ-700
(CRJ7)
More flights by this aircraft type
Origin: KPSP Palm Springs Intl
United States
Destination: KSFO San Francisco Intl
United States
More flights between these airports :: More routes between these airports
Route: +CATH1 PSP V386 PMD AVE MAKRS SERFR SERFR3
File this flight plan on PilotEdge
Remarks:
Altitude:
(Current/Filed)
38,000ft
Speed:
(Current/Filed)
185kts
Departed: 04-May-19 02:16 PM
Arrived: 04-May-19 03:28 PM
Distance/Time
Traveled:
365nm/1:12
Distance/Time
To Go:
Arrived

Flight Plot

Page will automatically refresh every two minutes.


Map Options




Map Legend


Flown Route
Filed Route
Departure Airport
Arrival Airport
Navaid (VOR, NDB)
Fix

Horizontal Profiles

Position Reports

Time Latitude Longitude Heading Altitude Ground
Speed
04-May-19 13:18 33.821233 -116.507709 45 484ft 0kts
04-May-19 13:19 33.821234 -116.507707 45 484ft 0kts
04-May-19 13:20 33.821235 -116.507706 45 484ft 0kts
04-May-19 13:21 33.821235 -116.507706 45 484ft 0kts
04-May-19 13:22 33.821235 -116.507706 45 484ft 0kts
04-May-19 13:23 33.821235 -116.507706 45 484ft 0kts
04-May-19 13:24 33.821235 -116.507706 45 484ft 0kts
04-May-19 13:25 33.821235 -116.507706 45 484ft 0kts
04-May-19 13:26 33.821235 -116.507706 45 484ft 0kts
04-May-19 13:27 33.821235 -116.507706 45 484ft 0kts
04-May-19 13:28 33.821235 -116.507706 45 484ft 0kts
04-May-19 13:29 33.821235 -116.507706 45 484ft 0kts
04-May-19 13:30 33.821235 -116.507706 45 484ft 0kts
04-May-19 13:31 33.821235 -116.507706 45 484ft 0kts
04-May-19 13:32 33.821235 -116.507706 45 484ft 0kts
04-May-19 13:33 33.821235 -116.507706 45 484ft 0kts
04-May-19 13:34 33.821235 -116.507706 45 484ft 0kts
04-May-19 13:35 33.821235 -116.507706 45 484ft 0kts
04-May-19 13:36 33.821235 -116.507706 45 484ft 0kts
04-May-19 13:37 33.821235 -116.507706 45 484ft 0kts
04-May-19 13:38 33.821235 -116.507706 45 484ft 0kts
04-May-19 13:39 33.821235 -116.507706 45 484ft 0kts
04-May-19 13:40 33.821235 -116.507706 45 484ft 0kts
04-May-19 13:41 33.821235 -116.507706 45 484ft 0kts
04-May-19 13:42 33.821235 -116.507706 45 484ft 0kts
04-May-19 13:43 33.821235 -116.507706 45 484ft 0kts
04-May-19 13:44 33.821235 -116.507706 45 484ft 0kts
04-May-19 13:45 33.821235 -116.507706 45 484ft 0kts
04-May-19 13:46 33.821235 -116.507706 45 484ft 0kts
04-May-19 13:47 33.821235 -116.507706 45 484ft 0kts
04-May-19 13:48 33.821235 -116.507706 45 484ft 0kts
04-May-19 13:49 33.821235 -116.507706 45 484ft 0kts
04-May-19 13:50 33.821235 -116.507706 45 484ft 0kts
04-May-19 13:51 33.821235 -116.507706 45 484ft 0kts
04-May-19 13:52 33.821143 -116.507895 173 484ft 2kts
04-May-19 13:53 33.820570 -116.507899 150 484ft 0kts
04-May-19 13:54 33.821018 -116.508208 150 484ft 0kts
04-May-19 13:55 33.821016 -116.508207 150 484ft 0kts
04-May-19 13:56 33.821014 -116.508206 150 484ft 0kts
04-May-19 13:57 33.821013 -116.508204 150 484ft 0kts
04-May-19 13:58 33.821011 -116.508203 150 484ft 0kts
04-May-19 13:59 33.821009 -116.508202 150 484ft 0kts
04-May-19 14:00 33.821008 -116.508201 150 484ft 0kts
04-May-19 14:01 33.821006 -116.508200 150 484ft 0kts
04-May-19 14:02 33.821005 -116.508199 150 484ft 0kts
04-May-19 14:03 33.821003 -116.508198 150 484ft 0kts
04-May-19 14:04 33.821001 -116.508197 150 484ft 0kts
04-May-19 14:05 33.821000 -116.508195 150 484ft 0kts
04-May-19 14:06 33.820998 -116.508194 150 484ft 0kts
04-May-19 14:07 33.820996 -116.508193 150 484ft 0kts
04-May-19 14:08 33.820898 -116.508124 148 484ft 2kts
04-May-19 14:09 33.819711 -116.506647 102 484ft 6kts
04-May-19 14:10 33.819669 -116.504155 90 484ft 11kts
04-May-19 14:11 33.818888 -116.500121 140 484ft 14kts
04-May-19 14:12 33.818523 -116.499103 89 484ft 0kts
04-May-19 14:13 33.818523 -116.499082 89 484ft 0kts
04-May-19 14:14 33.818973 -116.498151 332 484ft 4kts
04-May-19 14:15 33.838234 -116.515058 323 1359ft 152kts
04-May-19 14:16 33.879288 -116.535685 27 4738ft 189kts
04-May-19 14:17 33.865811 -116.474589 110 7057ft 270kts
04-May-19 14:18 33.904919 -116.411831 356 8769ft 268kts
04-May-19 14:19 33.958994 -116.464501 326 11137ft 262kts
04-May-19 14:20 34.029534 -116.492186 340 13137ft 271kts
04-May-19 14:21 34.102300 -116.520614 338 15061ft 277kts
04-May-19 14:22 34.176279 -116.549818 338 16775ft 283kts
04-May-19 14:23 34.252424 -116.579603 338 18332ft 299kts
04-May-19 14:24 34.297399 -116.657711 283 19781ft 299kts
04-May-19 14:25 34.320636 -116.755711 283 21553ft 305kts
04-May-19 14:26 34.344879 -116.854801 283 23259ft 309kts
04-May-19 14:27 34.369220 -116.955395 282 24759ft 313kts
04-May-19 14:28 34.393928 -117.057895 282 26175ft 318kts
04-May-19 14:29 34.418880 -117.161206 282 27498ft 322kts
04-May-19 14:30 34.444028 -117.266108 283 28538ft 333kts
04-May-19 14:31 34.471414 -117.380823 282 28600ft 375kts
04-May-19 14:32 34.501283 -117.506767 282 29779ft 389kts
04-May-19 14:33 34.530287 -117.630057 281 31616ft 380kts
04-May-19 14:34 34.559135 -117.752718 281 33023ft 376kts
04-May-19 14:35 34.587392 -117.873805 281 34280ft 371kts
04-May-19 14:36 34.615344 -117.994068 282 35338ft 368kts
04-May-19 14:37 34.653059 -118.110400 300 36094ft 380kts
04-May-19 14:38 34.714343 -118.214204 297 36851ft 376kts
04-May-19 14:40 34.770854 -118.320751 298 37631ft 374kts
04-May-19 14:41 34.828552 -118.426959 296 37976ft 380kts
04-May-19 14:42 34.887556 -118.536607 297 38012ft 393kts
04-May-19 14:43 34.947498 -118.648213 297 38023ft 395kts
04-May-19 14:44 35.007778 -118.761030 297 38024ft 397kts
04-May-19 14:45 35.068155 -118.874339 297 38007ft 400kts
04-May-19 14:46 35.128908 -118.988684 297 37977ft 403kts
04-May-19 14:47 35.190137 -119.104254 297 37934ft 406kts
04-May-19 14:48 35.251550 -119.220365 296 37912ft 407kts
04-May-19 14:49 35.313077 -119.336814 296 37920ft 408kts
04-May-19 14:50 35.374319 -119.453805 296 37921ft 409kts
04-May-19 14:51 35.436003 -119.571847 297 37929ft 411kts
04-May-19 14:52 35.497588 -119.690091 296 37912ft 412kts
04-May-19 14:53 35.559049 -119.808587 296 37920ft 412kts
04-May-19 14:54 35.620781 -119.927901 294 37911ft 411kts
04-May-19 14:55 35.658696 -120.055119 271 37935ft 393kts
04-May-19 14:56 35.666883 -120.189060 274 37945ft 394kts
04-May-19 14:57 35.680938 -120.323142 272 37934ft 394kts
04-May-19 14:58 35.722526 -120.449093 293 37934ft 406kts
04-May-19 14:59 35.770714 -120.573657 288 37910ft 403kts
04-May-19 15:00 35.818464 -120.698967 289 37936ft 403kts
04-May-19 15:00 35.858048 -120.803329 289 37933ft 404kts
04-May-19 15:02 35.913301 -120.949783 288 37934ft 404kts
04-May-19 15:03 35.960752 -121.076228 288 37934ft 406kts
04-May-19 15:03 36.000190 -121.181616 288 37942ft 403kts
04-May-19 15:05 36.050709 -121.316906 287 35798ft 363kts
04-May-19 15:06 36.122741 -121.413566 323 31740ft 414kts
04-May-19 15:06 36.206167 -121.470097 321 29673ft 403kts
04-May-19 15:07 36.299330 -121.543963 321 27773ft 392kts
04-May-19 15:08 36.390434 -121.616857 323 26011ft 385kts
04-May-19 15:09 36.479023 -121.686197 324 23691ft 371kts
04-May-19 15:10 36.564659 -121.754014 325 20841ft 359kts
04-May-19 15:11 36.647946 -121.819883 325 17877ft 353kts
04-May-19 15:12 36.730924 -121.885847 325 17487ft 354kts
04-May-19 15:13 36.827007 -121.918952 350 16713ft 367kts
04-May-19 15:14 36.927712 -121.946172 345 15922ft 371kts
04-May-19 15:15 37.027023 -121.981845 340 15130ft 373kts
04-May-19 15:16 37.121883 -122.019447 342 14007ft 327kts
04-May-19 15:17 37.204381 -122.051541 342 10956ft 305kts
04-May-19 15:18 37.282828 -122.082505 341 7459ft 286kts
04-May-19 15:19 37.349622 -122.108819 341 6314ft 223kts
04-May-19 15:20 37.407227 -122.130137 344 6003ft 215kts
04-May-19 15:21 37.470206 -122.151480 343 4613ft 243kts
04-May-19 15:22 37.530548 -122.176115 330 3182ft 206kts
04-May-19 15:23 37.559766 -122.233156 293 2190ft 191kts
04-May-19 15:24 37.582180 -122.287836 297 1386ft 147kts
04-May-19 15:25 37.600178 -122.330212 295 467ft 123kts
04-May-19 15:26 37.615405 -122.366976 295 32ft 103kts
04-May-19 15:27 37.619639 -122.379334 229 20ft 2kts
04-May-19 15:28 37.619463 -122.379573 225 20ft 4kts
04-May-19 15:29 37.620166 -122.383157 297 20ft 18kts
04-May-19 15:30 37.620397 -122.385420 206 20ft 3kts
04-May-19 15:31 37.619661 -122.385552 161 20ft 3kts
04-May-19 15:32 37.618829 -122.385196 160 20ft 0kts
04-May-19 15:33 37.618829 -122.385196 160 20ft 0kts
04-May-19 15:34 37.618829 -122.385196 160 20ft 0kts
04-May-19 15:35 37.618829 -122.385196 160 20ft 0kts
04-May-19 15:36 37.618829 -122.385196 160 20ft 0kts
04-May-19 15:37 37.618829 -122.385196 160 20ft 0kts

Navigation Log

Ident Type
Flight plan parsing failed, navigation log unavailable